sensor_id;sensor_type;location;lat;lon;timestamp;pressure;altitude;pressure_sealevel;temperature;humidity
62980;BME280;49075;53.988;27.678;2023-07-31T00:00:13;980.1;;;14.7;79.1
62980;BME280;49075;53.988;27.678;2023-07-31T00:05:27;980.1;;;14.6;78.9
62980;BME280;49075;53.988;27.678;2023-07-31T00:10:35;980;;;14.6;79.1
62980;BME280;49075;53.988;27.678;2023-07-31T00:15:21;980;;;14.5;79.1
62980;BME280;49075;53.988;27.678;2023-07-31T00:20:25;980;;;14.4;79.2
62980;BME280;49075;53.988;27.678;2023-07-31T00:25:13;980;;;14.3;79.4
62980;BME280;49075;53.988;27.678;2023-07-31T00:30:27;980;;;14.2;79.7
62980;BME280;49075;53.988;27.678;2023-07-31T00:35:13;980;;;14.1;79.8
62980;BME280;49075;53.988;27.678;2023-07-31T00:40:41;980;;;14.1;80.2
62980;BME280;49075;53.988;27.678;2023-07-31T00:45:13;980;;;14.1;79.9
62980;BME280;49075;53.988;27.678;2023-07-31T00:50:39;980;;;14.1;79.4
62980;BME280;49075;53.988;27.678;2023-07-31T00:55:25;980;;;13.9;79.4
62980;BME280;49075;53.988;27.678;2023-07-31T01:00:41;980;;;13.8;80.4
62980;BME280;49075;53.988;27.678;2023-07-31T01:05:49;980;;;13.8;80.5
62980;BME280;49075;53.988;27.678;2023-07-31T01:10:41;980;;;13.9;79.9
62980;BME280;49075;53.988;27.678;2023-07-31T01:15:35;980;;;13.9;79.5
62980;BME280;49075;53.988;27.678;2023-07-31T01:20:35;980;;;13.9;79.4
62980;BME280;49075;53.988;27.678;2023-07-31T01:25:30;980;;;13.9;79.1
62980;BME280;49075;53.988;27.678;2023-07-31T01:30:33;980;;;13.9;79
62980;BME280;49075;53.988;27.678;2023-07-31T01:35:42;980;;;13.8;79.1
62980;BME280;49075;53.988;27.678;2023-07-31T01:40:27;980;;;13.7;79.3
62980;BME280;49075;53.988;27.678;2023-07-31T01:45:27;980;;;13.6;79.5
62980;BME280;49075;53.988;27.678;2023-07-31T01:50:21;980.1;;;13.5;79.7
62980;BME280;49075;53.988;27.678;2023-07-31T01:55:13;980.1;;;13.6;79.7
62980;BME280;49075;53.988;27.678;2023-07-31T02:00:25;980.1;;;13.7;79.4
62980;BME280;49075;53.988;27.678;2023-07-31T02:05:13;980.1;;;13.7;79.1
62980;BME280;49075;53.988;27.678;2023-07-31T02:10:35;980.1;;;13.6;79
62980;BME280;49075;53.988;27.678;2023-07-31T02:15:27;980.2;;;13.5;79.4
62980;BME280;49075;53.988;27.678;2023-07-31T02:20:27;980.2;;;13.4;79.6
62980;BME280;49075;53.988;27.678;2023-07-31T02:25:33;980.2;;;13.3;79.7
62980;BME280;49075;53.988;27.678;2023-07-31T02:30:33;980.2;;;13.4;79.5
62980;BME280;49075;53.988;27.678;2023-07-31T02:35:25;980.2;;;13.5;79.3
62980;BME280;49075;53.988;27.678;2023-07-31T02:40:27;980.3;;;13.5;79
62980;BME280;49075;53.988;27.678;2023-07-31T02:45:27;980.3;;;13.6;78.7
62980;BME280;49075;53.988;27.678;2023-07-31T02:50:13;980.3;;;13.7;78.4
62980;BME280;49075;53.988;27.678;2023-07-31T02:55:13;980.4;;;13.7;78.2
62980;BME280;49075;53.988;27.678;2023-07-31T03:00:21;980.4;;;13.9;77.9
62980;BME280;49075;53.988;27.678;2023-07-31T03:05:13;980.4;;;14;77.6
62980;BME280;49075;53.988;27.678;2023-07-31T03:10:13;980.4;;;14.2;77.2
62980;BME280;49075;53.988;27.678;2023-07-31T03:15:27;980.4;;;14.4;77
62980;BME280;49075;53.988;27.678;2023-07-31T03:20:41;980.4;;;14.4;77
62980;BME280;49075;53.988;27.678;2023-07-31T03:25:27;980.4;;;14.5;76.7
62980;BME280;49075;53.988;27.678;2023-07-31T03:30:35;980.4;;;14.7;76.2
62980;BME280;49075;53.988;27.678;2023-07-31T03:35:13;980.4;;;14.9;75.9
62980;BME280;49075;53.988;27.678;2023-07-31T03:40:33;980.4;;;15;75.8
62980;BME280;49075;53.988;27.678;2023-07-31T03:45:21;980.4;;;15.2;75.7
62980;BME280;49075;53.988;27.678;2023-07-31T03:50:13;980.4;;;15.2;75.7
62980;BME280;49075;53.988;27.678;2023-07-31T03:55:13;980.4;;;15.2;75.9
62980;BME280;49075;53.988;27.678;2023-07-31T04:00:21;980.5;;;15.3;76
62980;BME280;49075;53.988;27.678;2023-07-31T04:05:21;980.4;;;15.6;75.4
62980;BME280;49075;53.988;27.678;2023-07-31T04:10:39;980.4;;;15.8;75
62980;BME280;49075;53.988;27.678;2023-07-31T04:15:41;980.4;;;16;74.6
62980;BME280;49075;53.988;27.678;2023-07-31T04:20:13;980.4;;;16.3;74.6
62980;BME280;49075;53.988;27.678;2023-07-31T04:25:35;980.5;;;16.6;73.9
62980;BME280;49075;53.988;27.678;2023-07-31T04:30:13;980.5;;;17.1;73.4
62980;BME280;49075;53.988;27.678;2023-07-31T04:35:21;980.5;;;17.4;73
62980;BME280;49075;53.988;27.678;2023-07-31T04:40:13;980.5;;;17.6;72.8
62980;BME280;49075;53.988;27.678;2023-07-31T04:45:21;980.5;;;17.8;72.6
62980;BME280;49075;53.988;27.678;2023-07-31T04:50:13;980.5;;;18.2;72.3
62980;BME280;49075;53.988;27.678;2023-07-31T04:55:27;980.5;;;18.6;71.3
